sensor_id;sensor_type;location;lat;lon;timestamp;pressure;altitude;pressure_sealevel;temperature;humidity
55656;BME280;41530;52.382;5.270;2024-01-10T00:02:03;103519.91;;;12.73;47.87
55656;BME280;41530;52.382;5.270;2024-01-10T00:04:30;103535.44;;;12.82;48.08
55656;BME280;41530;52.382;5.270;2024-01-10T00:06:57;103546.81;;;12.84;48.11
55656;BME280;41530;52.382;5.270;2024-01-10T00:09:23;103536.41;;;12.80;48.06
55656;BME280;41530;52.382;5.270;2024-01-10T00:11:50;103540.91;;;12.78;48.19
55656;BME280;41530;52.382;5.270;2024-01-10T00:14:17;103541.88;;;12.75;48.08
55656;BME280;41530;52.382;5.270;2024-01-10T00:16:44;103477.22;;;12.37;48.31
55656;BME280;41530;52.382;5.270;2024-01-10T00:19:10;103511.63;;;12.59;48.29
55656;BME280;41530;52.382;5.270;2024-01-10T00:21:37;103529.88;;;12.65;48.18
55656;BME280;41530;52.382;5.270;2024-01-10T00:24:04;103523.00;;;12.61;48.53
55656;BME280;41530;52.382;5.270;2024-01-10T00:26:31;103521.38;;;12.57;48.55
55656;BME280;41530;52.382;5.270;2024-01-10T00:28:58;103516.09;;;12.57;48.40
55656;BME280;41530;52.382;5.270;2024-01-10T00:31:30;103505.88;;;12.48;48.80
55656;BME280;41530;52.382;5.270;2024-01-10T00:33:57;103506.84;;;12.45;48.54
55656;BME280;41530;52.382;5.270;2024-01-10T00:36:23;103512.16;;;12.44;48.53
55656;BME280;41530;52.382;5.270;2024-01-10T00:38:50;103506.16;;;12.39;49.00
55656;BME280;41530;52.382;5.270;2024-01-10T00:41:17;103489.84;;;12.28;48.91
55656;BME280;41530;52.382;5.270;2024-01-10T00:43:43;103509.66;;;12.39;49.03
55656;BME280;41530;52.382;5.270;2024-01-10T00:46:13;103509.94;;;12.32;49.33
55656;BME280;41530;52.382;5.270;2024-01-10T00:48:39;103509.94;;;12.32;48.85
55656;BME280;41530;52.382;5.270;2024-01-10T00:51:06;103503.81;;;12.31;48.80
55656;BME280;41530;52.382;5.270;2024-01-10T00:53:35;103501.38;;;12.25;49.69
55656;BME280;41530;52.382;5.270;2024-01-10T00:56:02;103503.38;;;12.19;49.49
55656;BME280;41530;52.382;5.270;2024-01-10T00:58:29;103508.56;;;12.22;49.38
55656;BME280;41530;52.382;5.270;2024-01-10T01:00:56;103502.50;;;12.18;49.67
55656;BME280;41530;52.382;5.270;2024-01-10T01:03:22;103499.31;;;12.08;49.83
55656;BME280;41530;52.382;5.270;2024-01-10T01:05:49;103491.56;;;12.04;50.04
55656;BME280;41530;52.382;5.270;2024-01-10T01:08:16;103498.47;;;12.08;50.05
55656;BME280;41530;52.382;5.270;2024-01-10T01:10:43;103500.34;;;12.04;50.02
55656;BME280;41530;52.382;5.270;2024-01-10T01:13:09;103495.06;;;12.04;50.01
55656;BME280;41530;52.382;5.270;2024-01-10T01:15:36;103479.53;;;11.95;50.04
55656;BME280;41530;52.382;5.270;2024-01-10T01:18:03;103510.03;;;12.04;50.07
55656;BME280;41530;52.382;5.270;2024-01-10T01:20:32;103503.94;;;12.02;49.91
55656;BME280;41530;52.382;5.270;2024-01-10T01:22:59;103488.91;;;12.04;50.00
55656;BME280;41530;52.382;5.270;2024-01-10T01:25:26;103481.28;;;11.96;50.47
55656;BME280;41530;52.382;5.270;2024-01-10T01:27:53;103487.09;;;12.06;49.59
55656;BME280;41530;52.382;5.270;2024-01-10T01:30:19;103496.69;;;12.08;49.96
55656;BME280;41530;52.382;5.270;2024-01-10T01:32:48;103490.31;;;12.14;50.11
55656;BME280;41530;52.382;5.270;2024-01-10T01:35:15;103473.75;;;12.10;49.87
55656;BME280;41530;52.382;5.270;2024-01-10T01:37:48;103477.56;;;12.27;49.76
55656;BME280;41530;52.382;5.270;2024-01-10T01:40:15;103475.69;;;12.30;49.76
55656;BME280;41530;52.382;5.270;2024-01-10T01:42:44;103448.53;;;12.27;49.65
55656;BME280;41530;52.382;5.270;2024-01-10T01:45:12;103468.19;;;12.43;49.34
55656;BME280;41530;52.382;5.270;2024-01-10T01:47:39;103455.84;;;12.43;49.22
55656;BME280;41530;52.382;5.270;2024-01-10T01:50:07;103452.97;;;12.51;48.90
55656;BME280;41530;52.382;5.270;2024-01-10T01:52:35;103466.63;;;12.62;49.09
55656;BME280;41530;52.382;5.270;2024-01-10T01:55:03;103476.09;;;12.68;48.75
55656;BME280;41530;52.382;5.270;2024-01-10T01:57:31;103465.47;;;12.69;48.74
55656;BME280;41530;52.382;5.270;2024-01-10T01:59:58;103459.16;;;12.73;48.60
55656;BME280;41530;52.382;5.270;2024-01-10T02:02:25;103441.03;;;12.64;48.62
55656;BME280;41530;52.382;5.270;2024-01-10T02:04:52;103460.84;;;12.76;48.15
55656;BME280;41530;52.382;5.270;2024-01-10T02:07:20;103459.72;;;12.81;48.31
55656;BME280;41530;52.382;5.270;2024-01-10T02:09:46;103436.53;;;12.66;48.19
55656;BME280;41530;52.382;5.270;2024-01-10T02:12:13;103441.59;;;12.72;48.42
55656;BME280;41530;52.382;5.270;2024-01-10T02:14:40;103452.78;;;12.79;48.32
55656;BME280;41530;52.382;5.270;2024-01-10T02:17:07;103446.75;;;12.75;48.31
55656;BME280;41530;52.382;5.270;2024-01-10T02:19:34;103451.13;;;12.76;48.45
55656;BME280;41530;52.382;5.270;2024-01-10T02:22:01;103438.31;;;12.66;48.38
55656;BME280;41530;52.382;5.270;2024-01-10T02:24:29;103444.28;;;12.71;48.53
55656;BME280;41530;52.382;5.270;2024-01-10T02:26:56;103437.56;;;12.62;48.42
55656;BME280;41530;52.382;5.270;2024-01-10T02:29:23;103440.88;;;12.67;48.70
55656;BME280;41530;52.382;5.270;2024-01-10T02:31:50;103431.47;;;12.60;48.66
55656;BME280;41530;52.382;5.270;2024-01-10T02:34:17;103397.88;;;12.40;48.65
55656;BME280;41530;52.382;5.270;2024-01-10T02:36:44;103416.91;;;12.50;48.50
55656;BME280;41530;52.382;5.270;2024-01-10T02:39:11;103414.31;;;12.48;48.43
55656;BME280;41530;52.382;5.270;2024-01-10T02:41:37;103424.69;;;12.53;48.55
55656;BME280;41530;52.382;5.270;2024-01-10T02:44:04;103423.97;;;12.49;48.72
55656;BME280;41530;52.382;5.270;2024-01-10T02:46:32;103424.94;;;12.47;48.46
55656;BME280;41530;52.382;5.270;2024-01-10T02:48:59;103435.44;;;12.48;48.89
55656;BME280;41530;52.382;5.270;2024-01-10T02:51:26;103423.41;;;12.40;48.99
55656;BME280;41530;52.382;5.270;2024-01-10T02:53:56;103437.31;;;12.45;49.04
55656;BME280;41530;52.382;5.270;2024-01-10T02:56:23;103414.06;;;12.31;49.02
55656;BME280;41530;52.382;5.270;2024-01-10T02:58:50;103428.06;;;12.33;48.94
55656;BME280;41530;52.382;5.270;2024-01-10T03:01:16;103424.56;;;12.33;49.04
55656;BME280;41530;52.382;5.270;2024-01-10T03:03:43;103428.06;;;12.33;48.98
55656;BME280;41530;52.382;5.270;2024-01-10T03:06:10;103429.09;;;12.29;49.29
55656;BME280;41530;52.382;5.270;2024-01-10T03:08:37;103402.38;;;12.13;49.08
55656;BME280;41530;52.382;5.270;2024-01-10T03:11:03;103418.91;;;12.19;49.63
55656;BME280;41530;52.382;5.270;2024-01-10T03:13:30;103416.44;;;12.14;49.59
55656;BME280;41530;52.382;5.270;2024-01-10T03:15:57;103421.66;;;12.16;49.46
55656;BME280;41530;52.382;5.270;2024-01-10T03:18:23;103417.44;;;12.11;49.66
55656;BME280;41530;52.382;5.270;2024-01-10T03:20:50;103409.72;;;12.05;49.81
55656;BME280;41530;52.382;5.270;2024-01-10T03:23:17;103418.44;;;12.07;50.05
55656;BME280;41530;52.382;5.270;2024-01-10T03:25:44;103417.63;;;12.05;49.99
55656;BME280;41530;52.382;5.270;2024-01-10T03:28:15;103416.91;;;12.00;50.48
55656;BME280;41530;52.382;5.270;2024-01-10T03:30:42;103400.50;;;11.92;49.95
55656;BME280;41530;52.382;5.270;2024-01-10T03:33:09;103420.53;;;11.98;50.34
55656;BME280;41530;52.382;5.270;2024-01-10T03:35:36;103422.38;;;11.96;50.47
55656;BME280;41530;52.382;5.270;2024-01-10T03:38:03;103408.59;;;11.86;50.23
55656;BME280;41530;52.382;5.270;2024-01-10T03:40:30;103419.78;;;11.94;49.96
55656;BME280;41530;52.382;5.270;2024-01-10T03:42:57;103415.59;;;11.87;50.01
55656;BME280;41530;52.382;5.270;2024-01-10T03:45:24;103422.41;;;11.94;50.20
55656;BME280;41530;52.382;5.270;2024-01-10T03:47:50;103422.38;;;11.96;49.95
55656;BME280;41530;52.382;5.270;2024-01-10T03:50:20;103429.13;;;12.03;49.89
55656;BME280;41530;52.382;5.270;2024-01-10T03:52:47;103413.50;;;11.98;49.73
55656;BME280;41530;52.382;5.270;2024-01-10T03:55:14;103414.16;;;12.03;49.98
55656;BME280;41530;52.382;5.270;2024-01-10T03:57:41;103407.16;;;12.02;50.02
55656;BME280;41530;52.382;5.270;2024-01-10T04:00:09;103420.78;;;12.15;49.52
55656;BME280;41530;52.382;5.270;2024-01-10T04:02:37;103403.13;;;12.17;49.53
55656;BME280;41530;52.382;5.270;2024-01-10T04:05:08;103418.72;;;12.25;49.89
55656;BME280;41530;52.382;5.270;2024-01-10T04:07:42;103403.94;;;12.19;49.62
55656;BME280;41530;52.382;5.270;2024-01-10T04:10:10;103411.72;;;12.24;49.62
55656;BME280;41530;52.382;5.270;2024-01-10T04:12:40;103413.09;;;12.34;49.19
55656;BME280;41530;52.382;5.270;2024-01-10T04:15:07;103414.81;;;12.35;49.44
55656;BME280;41530;52.382;5.270;2024-01-10T04:17:34;103404.38;;;12.32;49.02
55656;BME280;41530;52.382;5.270;2024-01-10T04:20:01;103419.91;;;12.39;49.29
55656;BME280;41530;52.382;5.270;2024-01-10T04:22:28;103408.69;;;12.34;49.33
55656;BME280;41530;52.382;5.270;2024-01-10T04:24:59;103400.88;;;12.31;48.89
55656;BME280;41530;52.382;5.270;2024-01-10T04:27:26;103406.91;;;12.35;49.12
55656;BME280;41530;52.382;5.270;2024-01-10T04:29:53;103414.63;;;12.39;49.05
55656;BME280;41530;52.382;5.270;2024-01-10T04:32:20;103414.63;;;12.39;48.97
55656;BME280;41530;52.382;5.270;2024-01-10T04:34:47;103399.28;;;12.26;49.27
55656;BME280;41530;52.382;5.270;2024-01-10T04:37:14;103412.19;;;12.35;49.16
55656;BME280;41530;52.382;5.270;2024-01-10T04:39:41;103404.38;;;12.32;49.45
55656;BME280;41530;52.382;5.270;2024-01-10T04:42:12;103412.13;;;12.36;49.32
55656;BME280;41530;52.382;5.270;2024-01-10T04:44:39;103409.59;;;12.33;49.30
55656;BME280;41530;52.382;5.270;2024-01-10T04:47:07;103399.94;;;12.32;49.20
55656;BME280;41530;52.382;5.270;2024-01-10T04:49:34;103387.16;;;12.22;49.48
55656;BME280;41530;52.382;5.270;2024-01-10T04:52:01;103401.88;;;12.27;49.18
55656;BME280;41530;52.382;5.270;2024-01-10T04:54:28;103394.00;;;12.26;49.47
55656;BME280;41530;52.382;5.270;2024-01-10T04:56:55;103397.47;;;12.28;49.20
55656;BME280;41530;52.382;5.270;2024-01-10T04:59:21;103388.06;;;12.21;49.97
55656;BME280;41530;52.382;5.270;2024-01-10T05:01:48;103341.69;;;11.89;49.58
55656;BME280;41530;52.382;5.270;2024-01-10T05:04:15;103395.25;;;12.16;49.49
55656;BME280;41530;52.382;5.270;2024-01-10T05:06:42;103400.38;;;12.20;49.79
55656;BME280;41530;52.382;5.270;2024-01-10T05:09:08;103396.13;;;12.16;49.62
55656;BME280;41530;52.382;5.270;2024-01-10T05:11:36;103359.97;;;11.95;49.64
55656;BME280;41530;52.382;5.270;2024-01-10T05:14:03;103386.59;;;12.12;50.05
55656;BME280;41530;52.382;5.270;2024-01-10T05:16:30;103392.69;;;12.14;49.89
55656;BME280;41530;52.382;5.270;2024-01-10T05:19:00;103383.28;;;12.07;49.96
55656;BME280;41530;52.382;5.270;2024-01-10T05:21:30;103379.88;;;12.03;49.93
55656;BME280;41530;52.382;5.270;2024-01-10T05:23:57;103378.19;;;12.01;50.16
55656;BME280;41530;52.382;5.270;2024-01-10T05:26:24;103377.47;;;11.97;50.43
55656;BME280;41530;52.382;5.270;2024-01-10T05:28:51;103377.53;;;11.96;50.59
55656;BME280;41530;52.382;5.270;2024-01-10T05:31:17;103383.59;;;11.98;50.55
55656;BME280;41530;52.382;5.270;2024-01-10T05:33:44;103374.13;;;11.92;50.78
55656;BME280;41530;52.382;5.270;2024-01-10T05:36:11;103351.63;;;11.82;50.56
55656;BME280;41530;52.382;5.270;2024-01-10T05:38:38;103368.91;;;11.91;50.56
55656;BME280;41530;52.382;5.270;2024-01-10T05:41:04;103358.56;;;11.85;50.83
55656;BME280;41530;52.382;5.270;2024-01-10T05:43:31;103356.75;;;11.85;50.94
55656;BME280;41530;52.382;5.270;2024-01-10T05:45:59;103362.91;;;11.86;50.60
55656;BME280;41530;52.382;5.270;2024-01-10T05:48:26;103360.34;;;11.84;50.59
55656;BME280;41530;52.382;5.270;2024-01-10T05:50:53;103377.75;;;11.88;50.58
55656;BME280;41530;52.382;5.270;2024-01-10T05:53:19;103376.03;;;11.87;50.75
55656;BME280;41530;52.382;5.270;2024-01-10T05:55:46;103369.16;;;11.83;50.76
55656;BME280;41530;52.382;5.270;2024-01-10T05:58:13;103373.41;;;11.87;50.61
55656;BME280;41530;52.382;5.270;2024-01-10T06:00:39;103375.31;;;11.84;50.73
55656;BME280;41530;52.382;5.270;2024-01-10T06:03:06;103359.47;;;11.84;51.00
55656;BME280;41530;52.382;5.270;2024-01-10T06:05:34;103356.84;;;11.84;50.83
55656;BME280;41530;52.382;5.270;2024-01-10T06:08:01;103375.59;;;11.99;50.42
55656;BME280;41530;52.382;5.270;2024-01-10T06:10:30;103369.47;;;11.99;50.71
55656;BME280;41530;52.382;5.270;2024-01-10T06:13:01;103369.28;;;12.05;50.65
55656;BME280;41530;52.382;5.270;2024-01-10T06:15:33;103370.06;;;12.07;50.34
55656;BME280;41530;52.382;5.270;2024-01-10T06:18:00;103368.94;;;12.14;50.45
55656;BME280;41530;52.382;5.270;2024-01-10T06:20:27;103362.56;;;12.20;50.08
55656;BME280;41530;52.382;5.270;2024-01-10T06:22:54;103364.97;;;12.26;50.51
55656;BME280;41530;52.382;5.270;2024-01-10T06:25:21;103358.78;;;12.27;50.20
55656;BME280;41530;52.382;5.270;2024-01-10T06:27:48;103350.09;;;12.25;50.19
55656;BME280;41530;52.382;5.270;2024-01-10T06:30:14;103337.66;;;12.27;50.02
55656;BME280;41530;52.382;5.270;2024-01-10T06:32:41;103330.63;;;12.27;49.70
55656;BME280;41530;52.382;5.270;2024-01-10T06:35:08;103328.69;;;12.32;49.67
55656;BME280;41530;52.382;5.270;2024-01-10T06:37:37;103339.75;;;12.42;49.36
55656;BME280;41530;52.382;5.270;2024-01-10T06:40:05;103326.91;;;12.33;49.29
55656;BME280;41530;52.382;5.270;2024-01-10T06:42:32;103327.88;;;12.30;49.29
55656;BME280;41530;52.382;5.270;2024-01-10T06:44:59;103342.44;;;12.40;49.11
55656;BME280;41530;52.382;5.270;2024-01-10T06:47:26;103345.88;;;12.42;48.63
55656;BME280;41530;52.382;5.270;2024-01-10T06:49:53;103346.81;;;12.41;48.66
55656;BME280;41530;52.382;5.270;2024-01-10T06:52:21;103352.06;;;12.41;48.79
55656;BME280;41530;52.382;5.270;2024-01-10T06:54:49;103354.81;;;12.38;48.37
55656;BME280;41530;52.382;5.270;2024-01-10T06:57:16;103358.22;;;12.42;48.67
55656;BME280;41530;52.382;5.270;2024-01-10T06:59:45;103340.97;;;12.33;48.49
55656;BME280;41530;52.382;5.270;2024-01-10T07:02:12;103344.41;;;12.35;48.25
55656;BME280;41530;52.382;5.270;2024-01-10T07:04:39;103342.03;;;12.28;48.74
55656;BME280;41530;52.382;5.270;2024-01-10T07:07:05;103362.22;;;12.29;50.41
55656;BME280;41530;52.382;5.270;2024-01-10T07:09:34;103359.66;;;12.27;50.51
55656;BME280;41530;52.382;5.270;2024-01-10T07:12:01;103362.94;;;12.34;50.64
55656;BME280;41530;52.382;5.270;2024-01-10T07:14:30;103368.28;;;12.32;51.02
55656;BME280;41530;52.382;5.270;2024-01-10T07:16:57;103336.41;;;12.13;50.85
55656;BME280;41530;52.382;5.270;2024-01-10T07:19:24;103352.78;;;12.23;50.96
55656;BME280;41530;52.382;5.270;2024-01-10T07:21:50;103370.25;;;12.26;51.17
55656;BME280;41530;52.382;5.270;2024-01-10T07:24:17;103358.16;;;12.20;51.25
55656;BME280;41530;52.382;5.270;2024-01-10T07:26:44;103343.63;;;12.08;51.13
55656;BME280;41530;52.382;5.270;2024-01-10T07:29:10;103365.22;;;12.20;51.06
55656;BME280;41530;52.382;5.270;2024-01-10T07:31:37;103358.50;;;12.11;51.24
55656;BME280;41530;52.382;5.270;2024-01-10T07:34:04;103372.31;;;12.18;51.22
55656;BME280;41530;52.382;5.270;2024-01-10T07:36:41;103358.50;;;12.11;51.42
55656;BME280;41530;52.382;5.270;2024-01-10T07:39:09;103376.84;;;12.14;51.55
55656;BME280;41530;52.382;5.270;2024-01-10T07:41:36;103369.75;;;12.16;51.48
55656;BME280;41530;52.382;5.270;2024-01-10T07:44:03;103363.59;;;12.16;51.83
55656;BME280;41530;52.382;5.270;2024-01-10T07:46:30;103375.06;;;12.14;51.58
55656;BME280;41530;52.382;5.270;2024-01-10T07:48:56;103376.75;;;12.17;51.69
55656;BME280;41530;52.382;5.270;2024-01-10T07:51:23;103365.38;;;12.15;51.63
55656;BME280;41530;52.382;5.270;2024-01-10T07:53:49;103374.88;;;12.21;51.16
55656;BME280;41530;52.382;5.270;2024-01-10T07:56:16;103371.50;;;12.16;50.93
55656;BME280;41530;52.382;5.270;2024-01-10T07:58:43;103385.47;;;12.19;51.12
55656;BME280;41530;52.382;5.270;2024-01-10T08:01:10;103364.69;;;12.10;51.24
55656;BME280;41530;52.382;5.270;2024-01-10T08:03:37;103365.72;;;12.06;51.01
55656;BME280;41530;52.382;5.270;2024-01-10T08:06:04;103375.41;;;12.05;51.09
55656;BME280;41530;52.382;5.270;2024-01-10T08:08:43;103371.19;;;12.00;51.14
55656;BME280;41530;52.382;5.270;2024-01-10T08:11:09;103385.81;;;12.10;51.35
55656;BME280;41530;52.382;5.270;2024-01-10T08:13:39;103383.13;;;12.11;51.01
55656;BME280;41530;52.382;5.270;2024-01-10T08:16:08;103381.31;;;12.12;50.98
55656;BME280;41530;52.382;5.270;2024-01-10T08:18:36;103396.59;;;12.27;50.66
55656;BME280;41530;52.382;5.270;2024-01-10T08:21:03;103379.63;;;12.34;50.83
55656;BME280;41530;52.382;5.270;2024-01-10T08:23:30;103392.34;;;12.48;50.26
55656;BME280;41530;52.382;5.270;2024-01-10T08:25:57;103392.78;;;12.59;50.22
55656;BME280;41530;52.382;5.270;2024-01-10T08:28:24;103374.31;;;12.59;50.12
55656;BME280;41530;52.382;5.270;2024-01-10T08:30:52;103390.72;;;12.67;49.99
55656;BME280;41530;52.382;5.270;2024-01-10T08:33:25;103389.63;;;12.73;49.87
55656;BME280;41530;52.382;5.270;2024-01-10T08:35:55;103376.53;;;12.70;49.76
55656;BME280;41530;52.382;5.270;2024-01-10T08:38:22;103389.47;;;12.77;49.52
55656;BME280;41530;52.382;5.270;2024-01-10T08:40:49;103369.47;;;12.70;49.50
55656;BME280;41530;52.382;5.270;2024-01-10T08:43:15;103394.44;;;12.85;49.48
55656;BME280;41530;52.382;5.270;2024-01-10T08:45:44;103400.78;;;13.03;49.36
55656;BME280;41530;52.382;5.270;2024-01-10T08:48:11;103374.09;;;13.09;48.68
55656;BME280;41530;52.382;5.270;2024-01-10T08:50:40;103385.31;;;13.37;48.49
55656;BME280;41530;52.382;5.270;2024-01-10T08:53:06;103393.38;;;13.56;48.14
55656;BME280;41530;52.382;5.270;2024-01-10T08:55:33;103378.09;;;13.63;47.50
55656;BME280;41530;52.382;5.270;2024-01-10T08:58:03;103386.97;;;13.82;46.95
55656;BME280;41530;52.382;5.270;2024-01-10T09:00:30;103391.88;;;13.91;46.41
55656;BME280;41530;52.382;5.270;2024-01-10T09:02:58;103395.56;;;14.07;46.04
55656;BME280;41530;52.382;5.270;2024-01-10T09:05:24;103384.75;;;14.12;46.21
55656;BME280;41530;52.382;5.270;2024-01-10T09:07:51;103380.56;;;14.26;46.15
55656;BME280;41530;52.382;5.270;2024-01-10T09:10:20;103376.47;;;14.40;46.03
55656;BME280;41530;52.382;5.270;2024-01-10T09:12:49;103372.56;;;14.48;46.05
55656;BME280;41530;52.382;5.270;2024-01-10T09:15:16;103372.19;;;14.56;45.60
55656;BME280;41530;52.382;5.270;2024-01-10T09:17:44;103368.34;;;14.63;45.44
55656;BME280;41530;52.382;5.270;2024-01-10T09:20:11;103372.22;;;14.75;45.35
55656;BME280;41530;52.382;5.270;2024-01-10T09:22:39;103345.66;;;14.76;44.71
55656;BME280;41530;52.382;5.270;2024-01-10T09:25:06;103359.00;;;14.92;45.28
55656;BME280;41530;52.382;5.270;2024-01-10T09:27:33;103361.38;;;14.98;44.72
55656;BME280;41530;52.382;5.270;2024-01-10T09:30:02;103345.94;;;15.06;44.28
55656;BME280;41530;52.382;5.270;2024-01-10T09:32:30;103351.81;;;15.13;43.95
55656;BME280;41530;52.382;5.270;2024-01-10T09:34:57;103348.78;;;15.20;44.12
55656;BME280;41530;52.382;5.270;2024-01-10T09:37:24;103339.88;;;15.21;43.93
55656;BME280;41530;52.382;5.270;2024-01-10T09:39:51;103353.00;;;15.24;43.18
55656;BME280;41530;52.382;5.270;2024-01-10T09:42:19;103351.66;;;15.33;43.31
55656;BME280;41530;52.382;5.270;2024-01-10T09:44:51;103332.16;;;15.34;43.82
55656;BME280;41530;52.382;5.270;2024-01-10T09:47:20;103337.78;;;15.45;43.47
55656;BME280;41530;52.382;5.270;2024-01-10T09:49:47;103340.94;;;15.53;43.98
55656;BME280;41530;52.382;5.270;2024-01-10T09:52:26;103338.16;;;15.56;42.82
55656;BME280;41530;52.382;5.270;2024-01-10T09:54:56;103320.72;;;15.51;43.42
55656;BME280;41530;52.382;5.270;2024-01-10T09:57:26;103343.47;;;15.56;42.74
55656;BME280;41530;52.382;5.270;2024-01-10T09:59:54;103357.03;;;15.67;43.08
55656;BME280;41530;52.382;5.270;2024-01-10T10:02:23;103354.38;;;15.67;43.07
55656;BME280;41530;52.382;5.270;2024-01-10T10:05:03;103353.28;;;15.72;42.37
55656;BME280;41530;52.382;5.270;2024-01-10T10:07:48;103343.69;;;15.69;42.13
55656;BME280;41530;52.382;5.270;2024-01-10T10:10:15;103350.63;;;15.72;42.42
55656;BME280;41530;52.382;5.270;2024-01-10T10:12:44;103333.22;;;15.66;43.66
55656;BME280;41530;52.382;5.270;2024-01-10T10:15:15;103347.75;;;15.76;42.48
55656;BME280;41530;52.382;5.270;2024-01-10T10:17:44;103338.06;;;15.75;42.53
55656;BME280;41530;52.382;5.270;2024-01-10T10:20:26;103345.88;;;15.78;42.37
55656;BME280;41530;52.382;5.270;2024-01-10T10:23:04;103330.34;;;15.71;42.46
55656;BME280;41530;52.382;5.270;2024-01-10T10:25:35;103347.81;;;15.75;42.63
55656;BME280;41530;52.382;5.270;2024-01-10T10:28:03;103352.34;;;15.73;41.85
55656;BME280;41530;52.382;5.270;2024-01-10T10:30:31;103335.66;;;15.71;42.74
55656;BME280;41530;52.382;5.270;2024-01-10T10:33:00;103340.25;;;15.67;42.12
55656;BME280;41530;52.382;5.270;2024-01-10T10:35:27;103328.00;;;15.64;42.60
55656;BME280;41530;52.382;5.270;2024-01-10T10:38:07;103336.19;;;15.60;42.25
55656;BME280;41530;52.382;5.270;2024-01-10T10:40:36;103332.00;;;15.56;42.46
55656;BME280;41530;52.382;5.270;2024-01-10T10:43:03;103346.13;;;15.56;42.71
55656;BME280;41530;52.382;5.270;2024-01-10T10:45:34;103337.78;;;15.45;42.42
55656;BME280;41530;52.382;5.270;2024-01-10T10:48:02;103324.84;;;15.39;42.30
55656;BME280;41530;52.382;5.270;2024-01-10T10:50:34;103347.31;;;15.49;41.48
55656;BME280;41530;52.382;5.270;2024-01-10T10:53:02;103346.78;;;15.43;41.97
55656;BME280;41530;52.382;5.270;2024-01-10T10:55:31;103336.78;;;15.30;42.05
55656;BME280;41530;52.382;5.270;2024-01-10T10:58:01;103349.72;;;15.37;42.66
55656;BME280;41530;52.382;5.270;2024-01-10T11:00:38;103333.97;;;15.33;42.09
55656;BME280;41530;52.382;5.270;2024-01-10T11:03:09;103340.59;;;15.25;42.20
55656;BME280;41530;52.382;5.270;2024-01-10T11:05:40;103343.25;;;15.25;43.13
55656;BME280;41530;52.382;5.270;2024-01-10T11:08:11;103353.06;;;15.23;43.12
55656;BME280;41530;52.382;5.270;2024-01-10T11:10:40;103355.09;;;15.18;43.87
55656;BME280;41530;52.382;5.270;2024-01-10T11:13:28;103360.56;;;15.15;43.28
55656;BME280;41530;52.382;5.270;2024-01-10T11:22:04;103343.81;;;14.95;44.04
55656;BME280;41530;52.382;5.270;2024-01-10T11:24:34;103325.06;;;14.81;44.62
55656;BME280;41530;52.382;5.270;2024-01-10T11:27:12;103341.75;;;14.83;44.11
55656;BME280;41530;52.382;5.270;2024-01-10T11:29:40;103347.19;;;14.80;44.77
55656;BME280;41530;52.382;5.270;2024-01-10T11:32:16;103339.47;;;14.76;44.37
55656;BME280;41530;52.382;5.270;2024-01-10T11:34:57;103343.28;;;14.70;44.55
55656;BME280;41530;52.382;5.270;2024-01-10T11:37:43;103339.28;;;14.61;44.38
55656;BME280;41530;52.382;5.270;2024-01-10T11:40:11;103331.53;;;14.57;45.32
55656;BME280;41530;52.382;5.270;2024-01-10T11:42:42;103324.81;;;14.50;45.01
55656;BME280;41530;52.382;5.270;2024-01-10T11:45:10;103330.00;;;14.51;45.17
55656;BME280;41530;52.382;5.270;2024-01-10T11:47:42;103318.13;;;14.41;45.66
55656;BME280;41530;52.382;5.270;2024-01-10T11:50:18;103320.72;;;14.43;45.36
55656;BME280;41530;52.382;5.270;2024-01-10T11:52:52;103319.06;;;14.40;45.40
55656;BME280;41530;52.382;5.270;2024-01-10T11:55:52;103321.91;;;14.36;45.62
55656;BME280;41530;52.382;5.270;2024-01-10T11:58:19;103302.00;;;14.27;45.87
55656;BME280;41530;52.382;5.270;2024-01-10T12:00:46;103305.66;;;14.24;45.58
55656;BME280;41530;52.382;5.270;2024-01-10T12:03:14;103311.88;;;14.23;45.71
55656;BME280;41530;52.382;5.270;2024-01-10T12:05:42;103318.91;;;14.24;45.34
55656;BME280;41530;52.382;5.270;2024-01-10T12:08:10;103306.13;;;14.14;45.99
55656;BME280;41530;52.382;5.270;2024-01-10T12:10:37;103311.38;;;14.15;45.78
55656;BME280;41530;52.382;5.270;2024-01-10T12:13:04;103325.31;;;14.19;45.52
55656;BME280;41530;52.382;5.270;2024-01-10T12:15:31;103314.31;;;14.09;45.62
55656;BME280;41530;52.382;5.270;2024-01-10T12:17:57;103317.03;;;14.08;46.18
55656;BME280;41530;52.382;5.270;2024-01-10T12:20:24;103307.63;;;14.01;45.77
55656;BME280;41530;52.382;5.270;2024-01-10T12:22:51;103325.94;;;14.05;46.46
55656;BME280;41530;52.382;5.270;2024-01-10T12:25:18;103294.88;;;13.90;46.15
55656;BME280;41530;52.382;5.270;2024-01-10T12:27:46;103315.72;;;13.98;46.08
55656;BME280;41530;52.382;5.270;2024-01-10T12:30:13;103312.13;;;13.99;46.34
55656;BME280;41530;52.382;5.270;2024-01-10T12:32:40;103295.94;;;13.86;46.31
55656;BME280;41530;52.382;5.270;2024-01-10T12:35:07;103309.03;;;13.89;46.23
55656;BME280;41530;52.382;5.270;2024-01-10T12:37:34;103313.31;;;13.91;46.81
55656;BME280;41530;52.382;5.270;2024-01-10T12:40:01;103308.16;;;13.88;46.76
55656;BME280;41530;52.382;5.270;2024-01-10T12:42:36;103284.91;;;13.76;47.06
55656;BME280;41530;52.382;5.270;2024-01-10T12:45:03;103298.00;;;13.79;46.81
55656;BME280;41530;52.382;5.270;2024-01-10T12:47:30;103300.44;;;13.84;46.93
55656;BME280;41530;52.382;5.270;2024-01-10T12:49:57;103284.84;;;13.78;46.75
55656;BME280;41530;52.382;5.270;2024-01-10T12:52:24;103283.31;;;13.72;46.83
55656;BME280;41530;52.382;5.270;2024-01-10T12:54:52;103286.13;;;13.69;47.15
55656;BME280;41530;52.382;5.270;2024-01-10T12:57:19;103292.91;;;13.75;47.12
55656;BME280;41530;52.382;5.270;2024-01-10T12:59:46;103293.03;;;13.72;47.21
55656;BME280;41530;52.382;5.270;2024-01-10T13:02:13;103292.25;;;13.70;47.20